Thursday, January 17, 2019, 6:15 AM EST
Back to Local

KPVC, Provincetown, Provincetown Municipal Airport

Location: Provincetown, MA, United States Lat: 42.067
Local Time: 6:15 AM EST (11:15 GMT) Lon: -70.217
Time Zone: US/Eastern Elev: 6 ft

Show me the last for .
Show Decoded

2019-01-17 05:56 METAR KPVC 171056Z AUTO 32018G24KT 10SM CLR M04/M12 A3030 RMK AO2 PK WND
                 32026/1028 SLP261 T10441117 FZRANO =
2019-01-17 04:56 METAR KPVC 170956Z AUTO 33018G24KT 10SM CLR M04/M11 A3028 RMK AO2 PK WND
                 32027/0910 SLP252 T10391106 FZRANO =
2019-01-17 03:56 METAR KPVC 170856Z AUTO 32019G24KT 10SM CLR M03/M09 A3025 RMK AO2 PK WND
                 32026/0824 SLP243 T10281094 51035 FZRANO =
2019-01-17 02:56 METAR KPVC 170756Z AUTO 34016G25KT 10SM CLR M02/M08 A3022 RMK AO2 PK WND
                 33026/0735 SLP233 T10171083 FZRANO =
2019-01-17 01:56 METAR KPVC 170656Z AUTO 33018G24KT 10SM CLR M01/M07 A3019 RMK AO2 SLP221
                 T10061067 FZRANO =
2019-01-17 00:56 METAR KPVC 170556Z AUTO 33016G23KT 10SM BKN034 BKN042 01/M06 A3015 RMK AO2
                 SLP208 T00061056 10022 20006 53029 FZRANO =
2019-01-16 23:56 METAR KPVC 170456Z AUTO 30018G22KT 10SM FEW048 02/M08 A3011 RMK AO2 SLP194
                 T00171078 400331083 FZRANO =
2019-01-16 22:56 METAR KPVC 170356Z AUTO 28016G21KT 10SM FEW050 02/M06 A3008 RMK AO2 SLP187
                 T00221056 FZRANO =
2019-01-16 21:56 METAR KPVC 170256Z AUTO 26013G20KT 10SM FEW050 02/M05 A3006 RMK AO2 SLP179
                 T00171050 53019 FZRANO =
2019-01-16 20:56 METAR KPVC 170156Z AUTO 25015KT 10SM CLR 01/M03 A3004 RMK AO2 SLP170 T00111033
                 FZRANO =
2019-01-16 19:56 METAR KPVC 170056Z AUTO 25014KT 10SM CLR 01/M04 A3001 RMK AO2 SLP163 T00111039
                 FZRANO =
2019-01-16 18:56 METAR KPVC 162356Z AUTO 25017G22KT 10SM CLR 02/M04 A3001 RMK AO2 SLP161
                 T00171044 10028 20011 53016 FZRANO =
2019-01-16 17:56 METAR KPVC 162256Z AUTO 25013KT 10SM CLR 02/M05 A2999 RMK AO2 SLP154 T00171050
                 FZRANO =
2019-01-16 16:56 METAR KPVC 162156Z AUTO 26014KT 10SM CLR 02/M06 A2996 RMK AO2 SLP146 T00171056
                 FZRANO =
2019-01-16 15:56 METAR KPVC 162056Z AUTO 28015G20KT 10SM OVC039 02/M05 A2996 RMK AO2 SLP145
                 T00221050 53008 FZRANO =
2019-01-16 14:56 METAR KPVC 161956Z AUTO 27014KT 10SM OVC035 02/M05 A2995 RMK AO2 SLP140
                 T00221050 FZRANO =
2019-01-16 13:56 METAR KPVC 161856Z AUTO 26013KT 10SM BKN030 BKN038 03/M04 A2994 RMK AO2 SLP136
                 T00281044 =
2019-01-16 12:56 METAR KPVC 161756Z AUTO 25016KT 10SM OVC032 02/M04 A2994 RMK AO2 PK WND
                 25026/1731 SLP137 T00221039 10033 21017 56027 FZRANO =
2019-01-16 11:56 METAR KPVC 161656Z AUTO 26019G22KT 10SM BKN038 03/M03 A2996 RMK AO2 SLP144
                 T00281033 =
2019-01-16 10:56 METAR KPVC 161556Z AUTO 22015KT 10SM CLR 03/M02 A2998 RMK AO2 SLP153 T00281022 =
2019-01-16 10:44 METAR KPVC 161544Z AUTO 22014KT 10SM FEW027 03/M02 A2999 RMK AO2 =
2019-01-16 10:09 METAR KPVC 161509Z AUTO 22012KT 10SM BKN029 02/M03 A3001 RMK AO2 FZRANO =
2019-01-16 09:56 METAR KPVC 161456Z AUTO 22012KT 10SM SCT029 02/M03 A3002 RMK AO2 SLP163
                 T00171028 58003 FZRANO =
2019-01-16 08:56 METAR KPVC 161356Z AUTO 23016KT 10SM CLR 02/M04 A3002 RMK AO2 SLP164 T00171039
                 FZRANO =
2019-01-16 07:56 METAR KPVC 161256Z AUTO 24012KT 10SM CLR 00/M04 A3003 RMK AO2 SLP167 T00001039
                 FZRANO =
2019-01-16 06:56 METAR KPVC 161156Z AUTO 23010KT 10SM CLR M01/M04 A3002 RMK AO2 SLP166 T10111044
                 11006 21083 58001 FZRANO =

Support USWX by starting your Amazon purchase here.